createdAt,value
2023-03-19T00:02:57.465Z,14.33
2023-03-19T00:06:00.423Z,13.83
2023-03-19T00:09:03.305Z,14.37
2023-03-19T00:12:08.532Z,14.47
2023-03-19T00:15:14.298Z,13.97
2023-03-19T00:18:17.566Z,13.53
2023-03-19T00:21:20.632Z,12.93
2023-03-19T00:24:23.533Z,12.77
2023-03-19T00:27:27.732Z,12.73
2023-03-19T00:30:30.743Z,13.37
2023-03-19T00:33:33.760Z,12.13
2023-03-19T00:36:37.910Z,11.67
2023-03-19T00:39:40.806Z,13.07
2023-03-19T00:42:45.190Z,13.73
2023-03-19T00:45:48.118Z,14.13
2023-03-19T00:48:55.301Z,13.30
2023-03-19T00:51:58.147Z,13.70
2023-03-19T00:55:01.167Z,13.60
2023-03-19T00:58:06.594Z,15.43
2023-03-19T01:01:11.018Z,14.10
2023-03-19T01:04:14.938Z,14.17
2023-03-19T01:07:18.044Z,13.83
2023-03-19T01:10:22.709Z,12.17
2023-03-19T01:13:26.958Z,13.20
2023-03-19T01:16:29.860Z,13.83
2023-03-19T01:19:32.686Z,11.50
2023-03-19T01:22:36.925Z,12.40
2023-03-19T01:25:40.730Z,12.33
2023-03-19T01:28:44.944Z,13.57
2023-03-19T01:31:47.756Z,12.87
2023-03-19T01:34:50.674Z,13.23
2023-03-19T01:37:53.481Z,12.40
2023-03-19T01:40:56.353Z,13.53
2023-03-19T01:44:00.583Z,12.10
2023-03-19T01:47:07.288Z,12.77
2023-03-19T01:50:23.174Z,12.97
2023-03-19T01:53:28.908Z,12.23
2023-03-19T01:56:34.382Z,12.47
2023-03-19T01:59:42.274Z,12.77
2023-03-19T02:02:48.551Z,13.67
2023-03-19T02:05:52.659Z,12.13
2023-03-19T02:08:58.251Z,11.57
2023-03-19T02:12:02.668Z,11.30
2023-03-19T02:15:08.189Z,12.00
2023-03-19T02:18:11.446Z,11.07
2023-03-19T02:21:17.532Z,10.73
2023-03-19T02:24:26.713Z,11.00
2023-03-19T02:27:31.285Z,12.23
2023-03-19T02:30:35.391Z,10.27
2023-03-19T02:33:38.451Z,10.23
2023-03-19T02:36:47.508Z,10.87
2023-03-19T02:39:58.737Z,10.00
2023-03-19T02:43:02.920Z,10.80
2023-03-19T02:46:08.933Z,10.90
2023-03-19T02:49:12.024Z,9.50
2023-03-19T02:52:14.916Z,11.10
2023-03-19T02:55:18.412Z,10.43
2023-03-19T02:58:22.642Z,9.60
2023-03-19T03:01:25.865Z,10.00
2023-03-19T03:04:29.160Z,10.23
2023-03-19T03:07:32.599Z,9.40
2023-03-19T03:10:35.674Z,8.67
2023-03-19T03:13:39.929Z,9.90
2023-03-19T03:16:42.842Z,8.97
2023-03-19T03:19:45.726Z,9.00
2023-03-19T03:22:48.637Z,9.13
2023-03-19T03:25:52.092Z,9.27
2023-03-19T03:28:56.253Z,9.03
2023-03-19T03:31:59.065Z,8.23
2023-03-19T03:35:01.931Z,8.00
2023-03-19T03:38:04.790Z,7.23
2023-03-19T03:41:07.924Z,9.03
2023-03-19T03:44:12.101Z,7.63
2023-03-19T03:47:15.347Z,8.33
2023-03-19T03:50:18.488Z,7.67
2023-03-19T03:53:21.555Z,7.90
2023-03-19T03:56:24.427Z,8.13
2023-03-19T03:59:28.592Z,7.37
2023-03-19T04:02:31.647Z,7.97
2023-03-19T04:05:34.505Z,6.33
2023-03-19T04:08:37.310Z,7.83
2023-03-19T04:11:41.863Z,7.80
2023-03-19T04:14:46.592Z,8.17
2023-03-19T04:17:49.500Z,7.27
2023-03-19T04:20:53.385Z,7.07
2023-03-19T04:23:56.170Z,6.73
2023-03-19T04:26:59.001Z,6.37
2023-03-19T04:30:03.240Z,6.23
2023-03-19T04:33:06.884Z,6.50
2023-03-19T04:36:09.979Z,5.10
2023-03-19T04:39:12.790Z,6.13
2023-03-19T04:42:16.122Z,5.53
2023-03-19T04:45:20.581Z,5.50
2023-03-19T04:48:23.447Z,5.80
2023-03-19T04:51:26.324Z,5.37
2023-03-19T04:54:29.696Z,5.10
2023-03-19T04:57:32.506Z,5.43
2023-03-19T05:00:36.727Z,5.57
2023-03-19T05:03:39.597Z,5.67
2023-03-19T05:06:42.870Z,6.07
2023-03-19T05:09:46.343Z,5.50
2023-03-19T05:12:49.132Z,6.00
2023-03-19T05:15:55.123Z,4.47
2023-03-19T05:18:58.074Z,4.73
2023-03-19T05:22:00.883Z,6.00
2023-03-19T05:25:03.932Z,5.13
2023-03-19T05:28:08.265Z,5.40
2023-03-19T05:31:12.426Z,5.27
2023-03-19T05:34:15.285Z,5.33
2023-03-19T05:37:18.272Z,5.60
2023-03-19T05:40:21.265Z,4.90
2023-03-19T05:43:24.097Z,5.50
2023-03-19T05:46:28.535Z,5.47
2023-03-19T05:49:31.339Z,5.47
2023-03-19T05:52:34.344Z,6.50
2023-03-19T05:55:37.179Z,8.30
2023-03-19T05:58:40.282Z,6.30
2023-03-19T06:01:44.474Z,6.53
2023-03-19T06:04:47.329Z,6.17
2023-03-19T06:07:50.241Z,5.67
2023-03-19T06:10:54.375Z,6.73
2023-03-19T06:13:57.227Z,6.83
2023-03-19T06:17:01.369Z,6.33
2023-03-19T06:20:05.164Z,6.50
2023-03-19T06:23:08.030Z,6.63
2023-03-19T06:26:10.916Z,7.50
2023-03-19T06:29:13.713Z,6.17
2023-03-19T06:32:17.826Z,6.93
2023-03-19T06:35:20.927Z,7.73
2023-03-19T06:38:23.741Z,7.13
2023-03-19T06:41:26.567Z,8.00
2023-03-19T06:44:30.013Z,7.37
2023-03-19T06:47:34.269Z,7.53
2023-03-19T06:50:37.057Z,7.23
2023-03-19T06:53:39.975Z,7.43
2023-03-19T06:56:42.805Z,6.63
2023-03-19T06:59:45.684Z,7.93
2023-03-19T07:02:49.836Z,7.13
2023-03-19T07:05:52.680Z,8.00
2023-03-19T07:08:56.142Z,7.17
2023-03-19T07:11:58.935Z,7.30
2023-03-19T07:15:01.876Z,6.87
2023-03-19T07:18:06.338Z,6.67
2023-03-19T07:21:09.142Z,6.93
2023-03-19T07:24:11.903Z,6.53
2023-03-19T07:27:14.998Z,5.43
2023-03-19T07:30:18.063Z,5.53
2023-03-19T07:33:22.484Z,5.47
2023-03-19T07:36:25.353Z,5.47
2023-03-19T07:39:28.115Z,4.73
2023-03-19T07:42:31.036Z,4.40
2023-03-19T07:45:34.030Z,4.57
2023-03-19T07:48:38.214Z,3.37
2023-03-19T07:51:41.157Z,3.60
2023-03-19T07:54:43.953Z,3.93
2023-03-19T07:57:46.764Z,3.93
2023-03-19T08:00:49.860Z,3.50
2023-03-19T08:03:54.024Z,3.87
2023-03-19T08:06:56.821Z,3.80
2023-03-19T08:09:59.755Z,3.30
2023-03-19T08:13:03.881Z,3.80
2023-03-19T08:16:07.208Z,3.80
2023-03-19T08:19:11.341Z,3.23
2023-03-19T08:22:14.368Z,3.20
2023-03-19T08:25:17.280Z,3.60
2023-03-19T08:28:20.360Z,3.13
2023-03-19T08:31:23.411Z,3.57
2023-03-19T08:34:27.988Z,4.33
2023-03-19T08:37:31.156Z,3.37
2023-03-19T08:40:34.239Z,3.43
2023-03-19T08:43:38.213Z,4.10
2023-03-19T08:46:42.503Z,3.77
2023-03-19T08:49:47.062Z,3.73
2023-03-19T08:52:50.063Z,3.77
2023-03-19T08:55:54.098Z,3.60
2023-03-19T08:58:57.617Z,3.73
2023-03-19T09:02:00.557Z,4.80
2023-03-19T09:05:05.170Z,5.27
2023-03-19T09:08:08.254Z,4.43
2023-03-19T09:11:11.403Z,3.37
2023-03-19T09:14:16.523Z,4.03
2023-03-19T09:17:19.341Z,3.43
2023-03-19T09:20:23.622Z,3.30
2023-03-19T09:23:26.498Z,3.90
2023-03-19T09:26:29.383Z,3.30
2023-03-19T09:29:32.279Z,3.27
2023-03-19T09:32:35.208Z,3.73
2023-03-19T09:35:39.808Z,3.27
2023-03-19T09:38:42.664Z,5.53
2023-03-19T09:41:59.830Z,2.80
2023-03-19T09:45:03.105Z,7.40
2023-03-19T09:48:08.969Z,5.00
2023-03-19T09:51:20.743Z,4.93
2023-03-19T09:54:30.985Z,7.17
2023-03-19T09:57:35.418Z,4.67
2023-03-19T10:00:40.618Z,3.73
2023-03-19T10:03:56.760Z,4.27
2023-03-19T10:07:09.914Z,3.30
2023-03-19T10:10:38.353Z,4.13
2023-03-19T10:13:56.195Z,3.50
2023-03-19T10:17:02.100Z,3.13
2023-03-19T10:20:11.072Z,3.90
2023-03-19T10:23:43.832Z,3.77
2023-03-19T10:26:47.321Z,3.80
2023-03-19T10:29:50.169Z,3.43
2023-03-19T10:33:01.395Z,3.83
2023-03-19T10:36:09.596Z,4.77
2023-03-19T10:39:17.855Z,5.93
2023-03-19T10:42:35.249Z,5.13
2023-03-19T10:45:39.441Z,4.13
2023-03-19T10:48:46.566Z,4.30
2023-03-19T10:51:49.804Z,4.07
2023-03-19T10:55:01.991Z,4.27
2023-03-19T10:58:07.057Z,4.97
2023-03-19T11:01:12.763Z,3.47
2023-03-19T11:04:18.610Z,3.93
2023-03-19T11:07:22.377Z,3.83
2023-03-19T11:10:30.048Z,4.07
2023-03-19T11:13:36.170Z,4.00
2023-03-19T11:16:50.312Z,4.03
2023-03-19T11:19:55.615Z,3.50
2023-03-19T11:23:02.603Z,3.63
2023-03-19T11:26:07.312Z,4.07
2023-03-19T11:29:11.407Z,3.73
2023-03-19T11:32:42.021Z,3.57
2023-03-19T11:35:52.490Z,3.50
2023-03-19T11:39:07.615Z,4.30
2023-03-19T11:42:35.411Z,3.57
2023-03-19T11:45:45.591Z,4.60
2023-03-19T11:49:16.413Z,3.40
2023-03-19T11:52:27.126Z,3.77
2023-03-19T11:55:36.271Z,2.77
2023-03-19T11:58:59.029Z,3.80
2023-03-19T12:02:25.801Z,3.50
2023-03-19T12:05:34.045Z,3.10
2023-03-19T12:08:43.851Z,3.63
2023-03-19T12:11:53.416Z,2.73
2023-03-19T12:15:10.229Z,4.10
2023-03-19T12:18:24.041Z,3.00
2023-03-19T12:21:36.065Z,3.53
2023-03-19T12:24:55.577Z,3.40
2023-03-19T12:28:05.155Z,4.30
2023-03-19T12:31:28.677Z,3.70
2023-03-19T12:34:36.118Z,2.93
2023-03-19T12:37:45.547Z,3.50
2023-03-19T12:40:53.715Z,3.07
2023-03-19T12:44:02.214Z,3.30
2023-03-19T12:47:10.689Z,3.33
2023-03-19T12:50:18.280Z,3.13
2023-03-19T12:53:32.300Z,2.80
2023-03-19T12:56:40.629Z,2.73
2023-03-19T12:59:49.120Z,3.30
2023-03-19T13:02:58.159Z,2.67
2023-03-19T13:06:05.925Z,3.33
2023-03-19T13:09:17.376Z,2.83
2023-03-19T13:12:23.632Z,2.93
2023-03-19T13:15:32.297Z,3.00
2023-03-19T13:18:42.257Z,2.33
2023-03-19T13:21:47.269Z,3.33
2023-03-19T13:24:52.160Z,2.30
2023-03-19T13:27:56.195Z,2.70
2023-03-19T13:31:05.993Z,3.40
2023-03-19T13:34:22.515Z,3.30
2023-03-19T13:37:25.362Z,3.47
2023-03-19T13:40:43.797Z,2.30
2023-03-19T13:43:54.521Z,2.87
2023-03-19T13:46:57.670Z,3.80
2023-03-19T13:50:24.473Z,2.63
2023-03-19T13:53:39.823Z,2.97
2023-03-19T13:57:06.661Z,3.90
2023-03-19T14:00:57.022Z,2.90
2023-03-19T14:04:01.798Z,3.37
2023-03-19T14:07:19.147Z,2.83
2023-03-19T14:10:27.816Z,2.70
2023-03-19T14:13:34.904Z,3.03
2023-03-19T14:16:42.167Z,2.67
2023-03-19T14:19:45.312Z,2.77
2023-03-19T14:23:04.206Z,2.63
2023-03-19T14:26:11.931Z,3.40
2023-03-19T14:29:16.474Z,2.77
2023-03-19T14:32:24.010Z,2.97
2023-03-19T14:35:27.779Z,2.83
2023-03-19T14:38:38.022Z,2.80
2023-03-19T14:41:44.712Z,2.33
2023-03-19T14:45:22.610Z,2.93
2023-03-19T14:48:47.304Z,2.63
2023-03-19T14:51:58.294Z,2.80
2023-03-19T14:55:04.782Z,2.33
2023-03-19T14:58:10.790Z,2.23
2023-03-19T15:01:13.881Z,2.57
2023-03-19T15:04:18.089Z,2.80
2023-03-19T15:07:26.404Z,2.23
2023-03-19T15:10:33.632Z,2.27
2023-03-19T15:13:47.626Z,2.43
2023-03-19T15:16:59.514Z,2.57
2023-03-19T15:20:03.870Z,2.63
2023-03-19T15:23:23.405Z,2.30
2023-03-19T15:26:35.472Z,2.33
2023-03-19T15:29:38.528Z,2.20
2023-03-19T15:32:54.239Z,2.67
2023-03-19T15:36:01.661Z,2.10
2023-03-19T15:39:08.186Z,2.53
2023-03-19T15:42:13.573Z,1.97
2023-03-19T15:45:20.600Z,2.40
2023-03-19T15:48:27.618Z,2.20
2023-03-19T15:51:31.362Z,2.00
2023-03-19T15:54:34.854Z,1.93
2023-03-19T15:57:40.540Z,2.17
2023-03-19T16:00:44.250Z,2.77
2023-03-19T16:03:52.989Z,2.37
2023-03-19T16:06:57.511Z,2.10
2023-03-19T16:10:00.560Z,3.03
2023-03-19T16:13:18.227Z,2.53
2023-03-19T16:16:23.228Z,2.10
2023-03-19T16:19:35.983Z,2.23
2023-03-19T16:22:38.871Z,2.17
2023-03-19T16:25:45.968Z,2.83
2023-03-19T16:28:58.128Z,2.63
2023-03-19T16:32:02.535Z,1.90
2023-03-19T16:35:07.339Z,2.00
2023-03-19T16:38:14.895Z,2.17
2023-03-19T16:41:23.938Z,2.40
2023-03-19T16:44:31.491Z,2.60
2023-03-19T16:47:34.511Z,1.93
2023-03-19T16:50:38.971Z,2.47
2023-03-19T16:53:42.229Z,3.50
2023-03-19T16:56:45.250Z,2.60
2023-03-19T16:59:49.637Z,3.10
2023-03-19T17:02:52.637Z,2.87
2023-03-19T17:05:55.473Z,3.50
2023-03-19T17:08:58.270Z,3.13
2023-03-19T17:12:01.685Z,2.53
2023-03-19T17:15:07.593Z,3.33
2023-03-19T17:18:16.950Z,3.13
2023-03-19T17:21:23.973Z,4.80
2023-03-19T17:24:28.898Z,4.73
2023-03-19T17:27:34.553Z,6.13
2023-03-19T17:30:39.648Z,7.87
2023-03-19T17:33:42.530Z,10.43
2023-03-19T17:36:47.092Z,10.67
2023-03-19T17:39:50.753Z,10.10
2023-03-19T17:42:54.203Z,9.33
2023-03-19T17:45:58.351Z,8.97
2023-03-19T17:49:01.166Z,8.37
2023-03-19T17:52:03.992Z,8.17
2023-03-19T17:55:16.037Z,8.17
2023-03-19T17:58:21.021Z,7.20
2023-03-19T18:01:28.132Z,7.53
2023-03-19T18:04:31.156Z,6.80
2023-03-19T18:07:33.965Z,5.80
2023-03-19T18:10:37.043Z,6.77
2023-03-19T18:13:40.100Z,7.40
2023-03-19T18:16:45.374Z,8.43
2023-03-19T18:19:50.747Z,9.40
2023-03-19T18:22:53.745Z,8.67
2023-03-19T18:25:56.681Z,9.00
2023-03-19T18:28:59.470Z,9.33
2023-03-19T18:32:07.261Z,9.83
2023-03-19T18:35:15.222Z,8.93
2023-03-19T18:38:20.233Z,8.27
2023-03-19T18:41:25.278Z,8.30
2023-03-19T18:44:28.145Z,7.50
2023-03-19T18:47:32.468Z,7.23
2023-03-19T18:50:35.455Z,6.73
2023-03-19T18:53:38.571Z,6.63
2023-03-19T18:56:41.438Z,7.03
2023-03-19T18:59:44.420Z,5.50
2023-03-19T19:02:49.236Z,5.37
2023-03-19T19:05:53.729Z,5.70
2023-03-19T19:08:56.530Z,4.63
2023-03-19T19:12:01.943Z,4.23
2023-03-19T19:15:06.003Z,4.47
2023-03-19T19:18:18.110Z,5.20
2023-03-19T19:21:21.020Z,5.33
2023-03-19T19:24:23.854Z,7.63
2023-03-19T19:27:27.167Z,8.23
2023-03-19T19:30:30.661Z,8.10
2023-03-19T19:33:36.611Z,5.63
2023-03-19T19:36:39.418Z,6.00
2023-03-19T19:39:42.205Z,6.07
2023-03-19T19:42:46.170Z,6.43
2023-03-19T19:45:51.551Z,6.73
2023-03-19T19:48:55.824Z,7.90
2023-03-19T19:51:58.621Z,7.63
2023-03-19T19:55:01.531Z,7.80
2023-03-19T19:58:06.292Z,6.43
2023-03-19T20:01:16.044Z,6.47
2023-03-19T20:04:21.722Z,6.10
2023-03-19T20:07:24.617Z,5.07
2023-03-19T20:10:29.886Z,5.43
2023-03-19T20:13:35.632Z,4.70
2023-03-19T20:16:38.488Z,4.70
2023-03-19T20:19:42.910Z,5.17
2023-03-19T20:22:46.233Z,5.43
2023-03-19T20:25:49.076Z,4.90
2023-03-19T20:28:52.699Z,4.97
2023-03-19T20:31:58.236Z,3.80
2023-03-19T20:35:02.978Z,4.10
2023-03-19T20:38:07.175Z,3.73
2023-03-19T20:41:19.460Z,4.10
2023-03-19T20:44:26.208Z,4.43
2023-03-19T20:47:32.875Z,4.07
2023-03-19T20:50:37.097Z,4.30
2023-03-19T20:53:40.063Z,4.17
2023-03-19T20:56:45.770Z,4.60
2023-03-19T20:59:50.029Z,7.17
2023-03-19T21:02:54.485Z,4.33
2023-03-19T21:06:01.930Z,4.33
2023-03-19T21:09:05.838Z,4.03
2023-03-19T21:12:24.018Z,5.47
2023-03-19T21:15:27.385Z,5.07
2023-03-19T21:18:30.254Z,4.60
2023-03-19T21:21:37.204Z,3.87
2023-03-19T21:24:40.031Z,4.27
2023-03-19T21:27:47.656Z,5.10
2023-03-19T21:30:50.587Z,5.60
2023-03-19T21:33:53.526Z,5.20
2023-03-19T21:36:57.728Z,6.50
2023-03-19T21:40:00.799Z,3.87
2023-03-19T21:43:04.851Z,4.70
2023-03-19T21:46:23.182Z,4.00
2023-03-19T21:49:27.232Z,3.53
2023-03-19T21:52:34.279Z,4.97
2023-03-19T21:55:43.171Z,3.60
2023-03-19T21:58:46.788Z,3.57
2023-03-19T22:01:49.750Z,3.33
2023-03-19T22:04:52.523Z,3.60
2023-03-19T22:07:57.179Z,4.23
2023-03-19T22:11:02.490Z,4.03
2023-03-19T22:14:08.080Z,4.20
2023-03-19T22:17:11.351Z,3.50
2023-03-19T22:20:17.410Z,3.30
2023-03-19T22:23:22.443Z,3.87
2023-03-19T22:26:30.634Z,3.73
2023-03-19T22:29:34.256Z,3.67
2023-03-19T22:32:37.118Z,4.60
2023-03-19T22:35:40.044Z,4.23
2023-03-19T22:38:45.024Z,3.80
2023-03-19T22:41:49.359Z,4.30
2023-03-19T22:44:52.224Z,3.70
2023-03-19T22:47:56.763Z,4.20
2023-03-19T22:51:00.048Z,4.27
2023-03-19T22:54:05.818Z,4.37
2023-03-19T22:57:12.386Z,3.87
2023-03-19T23:00:18.268Z,4.07
2023-03-19T23:03:24.595Z,3.80
2023-03-19T23:06:30.904Z,4.37
2023-03-19T23:09:37.535Z,4.70
2023-03-19T23:12:41.425Z,4.67
2023-03-19T23:15:45.158Z,4.13
2023-03-19T23:18:48.670Z,3.87
2023-03-19T23:21:52.283Z,3.83
2023-03-19T23:24:56.592Z,4.77
2023-03-19T23:28:02.216Z,4.00
2023-03-19T23:31:05.123Z,3.63
2023-03-19T23:34:08.615Z,3.60
2023-03-19T23:37:11.759Z,3.73
2023-03-19T23:40:16.929Z,4.23
2023-03-19T23:43:22.825Z,3.87
2023-03-19T23:46:25.825Z,3.57
2023-03-19T23:49:30.727Z,3.20
2023-03-19T23:52:33.550Z,3.53
2023-03-19T23:55:37.876Z,3.20
2023-03-19T23:58:43.174Z,2.83
